Arrowsmith, Illinois
Current Conditions -  °F | °C
As of 9:56 PM on Sunday 23 Nov 2014 (Local Time) from KBMI Reporting Station
Light Rain Light Rain  
Wind Chill: 50°   Ceiling: 100
Heat Index: 50°   Visibility: 2.5mi
Dew Point: 50°   Wind: 8mph
Humidity: 100%   Direction: 220°SW
Pressure: 29.18"   Gusts: NA
Location:  40.45°N, 88.63°W
Report Text: KBMI 240356Z 22007KT 2 1/2SM -RA BR OVC001 10/10 A2918 RMK AO2 T01000100 P0004 SLP883
Loading
Personal Weather Stations






























Interactive Weather Map New forecast layout! Learn more

10-Day Weather Forecast

Advertisements
Track Severe Weather on mobile